Time,TemperatureF,DewpointF,PressureIn,WindDirection,WindDirectionDegrees,WindSpeedMPH,WindSpeedGustMPH,Humidity,HourlyPrecipIn,Conditions,Clouds,dailyrainin,SoftwareType,DateUTC
2013-01-05 00:00:00,44.9,33.9,30.27,WSW,258,7.5,10.5,65,0.00, ,,-99.99,VWS V12.07,2013-01-05 05:00:00,
2013-01-05 00:01:00,45.0,34.0,30.27,WNW,282,6.3,10.5,65,0.00, ,,-99.99,VWS V12.07,2013-01-05 05:01:00,
2013-01-05 00:03:00,44.9,34.0,30.27,WNW,291,7.0,10.5,65,0.00, ,,-99.99,VWS V12.07,2013-01-05 05:03:00,
2013-01-05 00:08:00,44.3,33.4,30.27,West,277,5.8,10.5,65,0.00, ,,-99.99,VWS V12.07,2013-01-05 05:08:00,
2013-01-05 00:13:00,44.8,33.9,30.27,West,275,8.2,11.6,65,0.00, ,,-99.99,VWS V12.07,2013-01-05 05:13:00,
2013-01-05 00:18:00,44.6,33.8,30.27,WSW,256,7.8,10.4,66,0.00, ,,-99.99,VWS V12.07,2013-01-05 05:18:00,
2013-01-05 00:23:00,44.3,33.7,30.27,West,272,9.1,11.6,66,0.00, ,,-99.99,VWS V12.07,2013-01-05 05:23:00,
2013-01-05 00:28:00,44.2,33.7,30.26,WSW,258,6.1,11.6,66,0.00, ,,-99.99,VWS V12.07,2013-01-05 05:28:00,
2013-01-05 00:33:00,44.3,34.1,30.27,WSW,254,4.5,11.6,67,0.00, ,,-99.99,VWS V12.07,2013-01-05 05:33:00,
2013-01-05 00:38:00,43.9,33.8,30.26,WNW,287,5.4,8.5,68,0.00, ,,-99.99,VWS V12.07,2013-01-05 05:38:00,
2013-01-05 00:43:00,44.2,34.4,30.27,WNW,282,6.2,9.9,68,0.00, ,,-99.99,VWS V12.07,2013-01-05 05:43:00,
2013-01-05 00:48:00,43.8,34.1,30.27,West,270,3.4,9.9,68,0.00, ,,-99.99,VWS V12.07,2013-01-05 05:48:00,
2013-01-05 00:53:00,43.4,34.0,30.27,WNW,295,7.5,11.3,69,0.00, ,,-99.99,VWS V12.07,2013-01-05 05:53:00,
2013-01-05 00:58:00,43.3,34.2,30.27,WNW,298,8.1,12.6,70,0.00, ,,-99.99,VWS V12.07,2013-01-05 05:58:00,
2013-01-05 01:01:00,42.9,34.0,30.27,NW,312,5.7,12.6,71,0.00, ,,-99.99,VWS V12.07,2013-01-05 06:01:00,
2013-01-05 01:06:00,42.4,34.0,30.27,WNW,298,6.8,12.6,72,0.00, ,,-99.99,VWS V12.07,2013-01-05 06:06:00,
2013-01-05 01:11:00,42.5,34.8,30.27,NW,325,8.5,12.6,74,0.00, ,,-99.99,VWS V12.07,2013-01-05 06:11:00,
2013-01-05 01:17:00,42.1,34.4,30.27,NW,318,9.9,9.9,74,0.00, ,,-99.99,VWS V12.07,2013-01-05 06:17:00,
2013-01-05 01:22:00,42.1,34.4,30.28,WNW,294,8.7,13.3,74,0.00, ,,-99.99,VWS V12.07,2013-01-05 06:22:00,
2013-01-05 01:28:00,42.1,34.6,30.28,NNW,327,8.0,13.3,75,0.00, ,,-99.99,VWS V12.07,2013-01-05 06:28:00,
2013-01-05 01:34:00,41.7,34.1,30.28,WNW,288,10.4,13.3,74,0.00, ,,-99.99,VWS V12.07,2013-01-05 06:34:00,
2013-01-05 01:39:00,41.3,33.6,30.28,NW,313,8.5,11.0,74,0.00, ,,-99.99,VWS V12.07,2013-01-05 06:39:00,
2013-01-05 01:44:00,41.9,34.6,30.28,NW,322,7.3,11.8,75,0.00, ,,-99.99,VWS V12.07,2013-01-05 06:44:00,
2013-01-05 01:50:00,41.2,34.9,30.29,NW,320,8.3,11.8,78,0.00, ,,-99.99,VWS V12.07,2013-01-05 06:50:00,
2013-01-05 01:55:00,40.9,34.5,30.29,NW,313,8.3,11.8,78,0.00, ,,-99.99,VWS V12.07,2013-01-05 06:55:00,
2013-01-05 02:00:00,40.7,34.5,30.29,NNW,340,8.3,10.1,78,0.00, ,,-99.99,VWS V12.07,2013-01-05 07:00:00,
2013-01-05 02:05:00,40.7,34.6,30.30,NNW,343,6.8,12.1,79,0.00, ,,-99.99,VWS V12.07,2013-01-05 07:05:00,
2013-01-05 02:10:00,40.7,35.0,30.30,NW,323,7.4,12.1,80,0.00, ,,-99.99,VWS V12.07,2013-01-05 07:10:00,
2013-01-05 02:15:00,40.7,35.3,30.30,NW,309,6.8,12.1,81,0.00, ,,-99.99,VWS V12.07,2013-01-05 07:15:00,
2013-01-05 02:20:00,40.8,35.8,30.30,NW,313,9.3,11.1,82,0.00, ,,-99.99,VWS V12.07,2013-01-05 07:20:00,
2013-01-05 02:25:00,40.2,35.2,30.30,NW,318,6.3,11.1,82,0.00, ,,-99.99,VWS V12.07,2013-01-05 07:25:00,
2013-01-05 02:30:00,39.8,34.9,30.30,NNW,327,8.7,11.1,82,0.00, ,,-99.99,VWS V12.07,2013-01-05 07:30:00,
2013-01-05 02:35:00,40.2,35.2,30.30,NNW,343,8.9,12.7,82,0.00, ,,-99.99,VWS V12.07,2013-01-05 07:35:00,
2013-01-05 02:40:00,39.4,34.2,30.30,NNW,333,10.5,13.9,81,0.00, ,,-99.99,VWS V12.07,2013-01-05 07:40:00,
2013-01-05 02:45:00,39.9,34.7,30.30,NNW,344,9.0,13.9,82,0.00, ,,-99.99,VWS V12.07,2013-01-05 07:45:00,
2013-01-05 02:50:00,39.2,34.1,30.30,NW,319,7.9,13.9,82,0.00, ,,-99.99,VWS V12.07,2013-01-05 07:50:00,
2013-01-05 02:55:00,39.1,34.0,30.31,NNW,327,9.3,13.9,82,0.00, ,,-99.99,VWS V12.07,2013-01-05 07:55:00,
2013-01-05 03:00:00,38.6,33.5,30.31,NNW,327,11.3,12.4,82,0.00, ,,-99.99,VWS V12.07,2013-01-05 08:00:00,
2013-01-05 03:05:00,38.9,33.7,30.31,NNW,327,12.1,14.2,81,0.00, ,,-99.99,VWS V12.07,2013-01-05 08:05:00,
2013-01-05 03:10:00,39.0,33.8,30.30,NNW,337,9.6,14.2,81,0.00, ,,-99.99,VWS V12.07,2013-01-05 08:10:00,
2013-01-05 03:15:00,38.7,32.7,30.31,NW,316,10.9,14.9,79,0.00, ,,-99.99,VWS V12.07,2013-01-05 08:15:00,
2013-01-05 03:20:00,39.1,32.6,30.31,NW,326,11.8,16.2,77,0.00, ,,-99.99,VWS V12.07,2013-01-05 08:20:00,
2013-01-05 03:25:00,39.3,32.8,30.31,NW,323,11.9,16.2,77,0.00, ,,-99.99,VWS V12.07,2013-01-05 08:25:00,
2013-01-05 03:30:00,38.5,31.2,30.31,NNW,327,12.9,16.6,75,0.00, ,,-99.99,VWS V12.07,2013-01-05 08:30:00,
2013-01-05 03:36:00,38.6,31.8,30.30,NNW,337,9.9,17.1,76,0.00, ,,-99.99,VWS V12.07,2013-01-05 08:36:00,
2013-01-05 03:41:00,38.6,32.3,30.30,NNW,333,9.1,14.9,78,0.00, ,,-99.99,VWS V12.07,2013-01-05 08:41:00,
2013-01-05 03:46:00,38.7,32.1,30.30,NNW,339,10.6,14.9,77,0.00, ,,-99.99,VWS V12.07,2013-01-05 08:46:00,
2013-01-05 03:51:00,38.5,31.9,30.30,NW,318,11.6,14.9,77,0.00, ,,-99.99,VWS V12.07,2013-01-05 08:51:00,
2013-01-05 03:56:00,38.3,31.5,30.30,NNW,337,9.1,14.9,76,0.00, ,,-99.99,VWS V12.07,2013-01-05 08:56:00,
2013-01-05 04:01:00,38.8,32.0,30.31,NNW,329,14.0,14.4,76,0.00, ,,-99.99,VWS V12.07,2013-01-05 09:01:00,
2013-01-05 04:06:00,38.4,31.3,30.31,NW,315,7.5,14.4,76,0.00, ,,-99.99,VWS V12.07,2013-01-05 09:06:00,
2013-01-05 04:11:00,38.2,30.9,30.31,NW,326,12.2,14.5,75,0.00, ,,-99.99,VWS V12.07,2013-01-05 09:11:00,
2013-01-05 04:16:00,37.9,30.2,30.31,NNW,336,8.9,14.5,73,0.00, ,,-99.99,VWS V12.07,2013-01-05 09:16:00,
2013-01-05 04:21:00,38.0,30.6,30.31,NNW,347,10.7,15.3,74,0.00, ,,-99.99,VWS V12.07,2013-01-05 09:21:00,
2013-01-05 04:26:00,37.7,30.2,30.31,NW,323,11.3,15.3,74,0.00, ,,-99.99,VWS V12.07,2013-01-05 09:26:00,
2013-01-05 04:31:00,38.1,30.7,30.31,NNW,329,9.8,15.3,74,0.00, ,,-99.99,VWS V12.07,2013-01-05 09:31:00,
2013-01-05 04:36:00,38.4,31.1,30.31,WNW,302,9.8,15.3,75,0.00, ,,-99.99,VWS V12.07,2013-01-05 09:36:00,
2013-01-05 04:41:00,38.2,31.0,30.31,NNW,347,7.2,11.1,75,0.00, ,,-99.99,VWS V12.07,2013-01-05 09:41:00,
2013-01-05 04:46:00,38.4,30.7,30.32,NW,308,7.0,11.1,74,0.00, ,,-99.99,VWS V12.07,2013-01-05 09:46:00,
2013-01-05 04:51:00,37.6,30.1,30.32,NW,319,6.4,11.7,74,0.00, ,,-99.99,VWS V12.07,2013-01-05 09:51:00,
2013-01-05 04:56:00,37.3,29.9,30.32,NNW,327,6.7,11.7,74,0.00, ,,-99.99,VWS V12.07,2013-01-05 09:56:00,
2013-01-05 05:01:00,37.4,30.0,30.32,NW,319,7.0,10.3,74,0.00, ,,-99.99,VWS V12.07,2013-01-05 10:01:00,
2013-01-05 05:06:00,37.6,30.4,30.32,NNW,329,5.7,10.3,75,0.00, ,,-99.99,VWS V12.07,2013-01-05 10:06:00,
2013-01-05 05:11:00,37.1,30.0,30.32,NNW,329,7.1,10.3,75,0.00, ,,-99.99,VWS V12.07,2013-01-05 10:11:00,
2013-01-05 05:16:00,36.6,29.8,30.32,North,358,5.8,10.3,76,0.00, ,,-99.99,VWS V12.07,2013-01-05 10:16:00,
2013-01-05 05:21:00,37.0,30.1,30.32,NNW,333,6.4,7.2,76,0.00, ,,-99.99,VWS V12.07,2013-01-05 10:21:00,
2013-01-05 05:26:00,36.9,30.1,30.32,NNW,334,8.4,9.9,76,0.00, ,,-99.99,VWS V12.07,2013-01-05 10:26:00,
2013-01-05 05:31:00,37.3,30.2,30.32,NNW,327,7.1,9.9,75,0.00, ,,-99.99,VWS V12.07,2013-01-05 10:31:00,
2013-01-05 05:36:00,37.1,30.0,30.32,NNW,332,8.9,10.0,75,0.00, ,,-99.99,VWS V12.07,2013-01-05 10:36:00,
2013-01-05 05:41:00,37.3,30.2,30.32,NNW,348,6.9,11.1,75,0.00, ,,-99.99,VWS V12.07,2013-01-05 10:41:00,
2013-01-05 05:46:00,36.9,30.1,30.32,NNW,347,7.9,11.1,76,0.00, ,,-99.99,VWS V12.07,2013-01-05 10:46:00,
2013-01-05 05:51:00,36.7,29.6,30.32,North,354,7.5,11.1,75,0.00, ,,-99.99,VWS V12.07,2013-01-05 10:51:00,
2013-01-05 05:56:00,36.8,29.9,30.32,NNW,334,7.4,11.1,76,0.00, ,,-99.99,VWS V12.07,2013-01-05 10:56:00,
2013-01-05 06:01:00,37.2,30.2,30.32,NNW,348,7.2,9.3,76,0.00, ,,-99.99,VWS V12.07,2013-01-05 11:01:00,
2013-01-05 06:06:00,36.8,29.8,30.33,NNW,346,6.6,9.9,76,0.00, ,,-99.99,VWS V12.07,2013-01-05 11:06:00,
2013-01-05 06:11:00,37.0,29.8,30.33,NNW,329,6.9,9.9,75,0.00, ,,-99.99,VWS V12.07,2013-01-05 11:11:00,
2013-01-05 06:16:00,37.3,29.9,30.33,NW,320,4.9,9.9,74,0.00, ,,-99.99,VWS V12.07,2013-01-05 11:16:00,
2013-01-05 06:21:00,37.0,29.7,30.33,NNW,327,7.5,9.5,74,0.00, ,,-99.99,VWS V12.07,2013-01-05 11:21:00,
2013-01-05 06:26:00,37.0,30.1,30.34,NNW,334,8.1,10.3,76,0.00, ,,-99.99,VWS V12.07,2013-01-05 11:26:00,
2013-01-05 06:31:00,37.1,30.0,30.34,North,358,6.3,10.3,75,0.00, ,,-99.99,VWS V12.07,2013-01-05 11:31:00,
2013-01-05 06:36:00,36.8,29.9,30.34,NNW,329,4.4,10.3,76,0.00, ,,-99.99,VWS V12.07,2013-01-05 11:36:00,
2013-01-05 06:41:00,36.9,29.7,30.35,NNW,334,7.5,9.2,75,0.00, ,,-99.99,VWS V12.07,2013-01-05 11:41:00,
2013-01-05 06:46:00,36.7,29.9,30.35,NW,318,6.3,9.2,76,0.00, ,,-99.99,VWS V12.07,2013-01-05 11:46:00,
2013-01-05 06:51:00,36.8,29.7,30.35,NNW,343,6.1,9.2,75,0.00, ,,-99.99,VWS V12.07,2013-01-05 11:51:00,
2013-01-05 06:56:00,36.1,28.8,30.35,North,351,5.2,9.2,75,0.00, ,,-99.99,VWS V12.07,2013-01-05 11:56:00,
2013-01-05 07:01:00,36.8,29.6,30.35,NNW,340,7.6,8.6,75,0.00, ,,-99.99,VWS V12.07,2013-01-05 12:01:00,
2013-01-05 07:06:00,36.7,30.0,30.36,North,11,5.5,8.6,76,0.00, ,,-99.99,VWS V12.07,2013-01-05 12:06:00,
2013-01-05 07:11:00,36.7,29.9,30.36,North,4,4.5,8.6,76,0.00, ,,-99.99,VWS V12.07,2013-01-05 12:11:00,
2013-01-05 07:16:00,36.2,29.8,30.36,North,358,4.5,8.6,77,0.00, ,,-99.99,VWS V12.07,2013-01-05 12:16:00,
2013-01-05 07:21:00,35.9,29.3,30.36,North,355,4.6,5.7,77,0.00, ,,-99.99,VWS V12.07,2013-01-05 12:21:00,
2013-01-05 07:26:00,36.0,29.4,30.36,North,357,0.0,6.1,77,0.00, ,,-99.99,VWS V12.07,2013-01-05 12:26:00,
2013-01-05 07:31:00,35.8,29.1,30.37,North,357,0.0,6.1,76,0.00, ,,-99.99,VWS V12.07,2013-01-05 12:31:00,
2013-01-05 07:36:00,36.2,29.3,30.37,NW,326,4.9,7.1,76,0.00, ,,-99.99,VWS V12.07,2013-01-05 12:36:00,
2013-01-05 07:41:00,36.8,29.8,30.37,WNW,298,2.9,8.3,76,0.00, ,,-99.99,VWS V12.07,2013-01-05 12:41:00,
2013-01-05 07:46:00,36.3,29.4,30.38,NW,322,7.0,8.5,76,0.00, ,,-99.99,VWS V12.07,2013-01-05 12:46:00,
2013-01-05 07:51:00,35.9,29.1,30.38,NW,310,6.8,8.5,76,0.00, ,,-99.99,VWS V12.07,2013-01-05 12:51:00,
2013-01-05 07:56:00,35.5,28.7,30.38,NW,323,6.7,8.5,76,0.00, ,,-99.99,VWS V12.07,2013-01-05 12:56:00,
2013-01-05 08:01:00,35.5,29.0,30.38,NW,309,4.8,7.2,77,0.00, ,,-99.99,VWS V12.07,2013-01-05 13:01:00,
2013-01-05 08:06:00,35.2,28.8,30.38,NW,305,3.4,7.2,77,0.00, ,,-99.99,VWS V12.07,2013-01-05 13:06:00,
2013-01-05 08:11:00,35.4,28.9,30.39,NW,323,4.8,7.5,77,0.00, ,,-99.99,VWS V12.07,2013-01-05 13:11:00,
2013-01-05 08:16:00,36.0,30.0,30.38,NW,319,4.7,8.3,79,0.00, ,,-99.99,VWS V12.07,2013-01-05 13:16:00,
2013-01-05 08:21:00,36.4,29.8,30.38,NW,326,7.1,9.2,77,0.00, ,,-99.99,VWS V12.07,2013-01-05 13:21:00,
2013-01-05 08:26:00,36.5,29.7,30.38,NNW,334,7.8,9.2,76,0.00, ,,-99.99,VWS V12.07,2013-01-05 13:26:00,
2013-01-05 08:31:00,37.4,30.5,30.38,NNW,339,9.6,9.6,76,0.00, ,,-99.99,VWS V12.07,2013-01-05 13:31:00,
2013-01-05 08:36:00,37.3,30.1,30.38,NNW,344,6.8,10.3,75,0.00, ,,-99.99,VWS V12.07,2013-01-05 13:36:00,
2013-01-05 08:41:00,38.1,30.3,30.38,North,350,9.8,11.0,73,0.00, ,,-99.99,VWS V12.07,2013-01-05 13:41:00,
2013-01-05 08:46:00,38.0,30.1,30.39,NNW,340,9.6,11.0,73,0.00, ,,-99.99,VWS V12.07,2013-01-05 13:46:00,
2013-01-05 08:51:00,38.4,30.2,30.39,NNW,348,9.6,11.7,72,0.00, ,,-99.99,VWS V12.07,2013-01-05 13:51:00,
2013-01-05 08:56:00,38.0,30.2,30.39,NNW,348,8.5,12.2,73,0.00, ,,-99.99,VWS V12.07,2013-01-05 13:56:00,
2013-01-05 09:01:00,38.7,29.8,30.39,NNW,327,8.1,13.5,70,0.00, ,,-99.99,VWS V12.07,2013-01-05 14:01:00,
2013-01-05 09:07:00,39.1,29.8,30.39,North,2,6.7,13.5,69,0.00, ,,-99.99,VWS V12.07,2013-01-05 14:07:00,
2013-01-05 09:12:00,39.3,29.9,30.39,NNW,346,9.8,14.8,69,0.00, ,,-99.99,VWS V12.07,2013-01-05 14:12:00,
2013-01-05 09:17:00,39.4,30.8,30.40,North,357,9.6,9.8,71,0.00, ,,-99.99,VWS V12.07,2013-01-05 14:17:00,
2013-01-05 09:23:00,39.6,29.7,30.40,North,355,6.6,12.6,67,0.00, ,,-99.99,VWS V12.07,2013-01-05 14:23:00,
2013-01-05 09:28:00,40.2,30.1,30.40,North,351,9.6,14.9,67,0.00, ,,-99.99,VWS V12.07,2013-01-05 14:28:00,
2013-01-05 09:33:00,39.9,30.5,30.40,NNW,343,9.7,14.9,69,0.00, ,,-99.99,VWS V12.07,2013-01-05 14:33:00,
2013-01-05 09:38:00,40.5,31.3,30.39,NNE,18,8.7,10.4,70,0.00, ,,-99.99,VWS V12.07,2013-01-05 14:38:00,
2013-01-05 09:43:00,40.3,30.3,30.39,NE,50,8.5,13.5,67,0.00, ,,-99.99,VWS V12.07,2013-01-05 14:43:00,
2013-01-05 09:48:00,40.1,30.0,30.40,North,1,10.0,14.8,67,0.00, ,,-99.99,VWS V12.07,2013-01-05 14:48:00,
2013-01-05 09:53:00,40.4,30.2,30.39,North,1,10.9,14.8,67,0.00, ,,-99.99,VWS V12.07,2013-01-05 14:53:00,
2013-01-05 09:58:00,40.8,30.3,30.39,North,360,9.1,13.5,66,0.00, ,,-99.99,VWS V12.07,2013-01-05 14:58:00,
2013-01-05 10:03:00,40.5,29.4,30.39,North,357,13.7,14.0,64,0.00, ,,-99.99,VWS V12.07,2013-01-05 15:03:00,
2013-01-05 10:08:00,41.3,30.8,30.39,NNE,21,9.5,14.0,66,0.00, ,,-99.99,VWS V12.07,2013-01-05 15:08:00,
2013-01-05 10:13:00,41.4,30.3,30.39,North,354,11.1,14.0,64,0.00, ,,-99.99,VWS V12.07,2013-01-05 15:13:00,
2013-01-05 10:18:00,41.2,29.8,30.39,North,5,12.2,12.9,64,0.00, ,,-99.99,VWS V12.07,2013-01-05 15:18:00,
2013-01-05 10:23:00,42.1,31.2,30.39,North,358,10.3,13.4,65,0.00, ,,-99.99,VWS V12.07,2013-01-05 15:23:00,
2013-01-05 10:28:00,42.5,31.1,30.39,North,2,9.4,13.5,64,0.00, ,,-99.99,VWS V12.07,2013-01-05 15:28:00,
2013-01-05 10:33:00,42.4,30.0,30.39,North,351,9.9,13.5,61,0.00, ,,-99.99,VWS V12.07,2013-01-05 15:33:00,
2013-01-05 10:38:00,43.2,31.2,30.39,NNE,15,11.2,11.7,62,0.00, ,,-99.99,VWS V12.07,2013-01-05 15:38:00,
2013-01-05 10:43:00,42.6,30.1,30.39,North,355,9.8,14.3,61,0.00, ,,-99.99,VWS V12.07,2013-01-05 15:43:00,
2013-01-05 10:48:00,43.7,31.6,30.39,NNE,17,10.9,14.3,62,0.00, ,,-99.99,VWS V12.07,2013-01-05 15:48:00,
2013-01-05 10:53:00,44.4,31.6,30.38,NNW,348,9.5,14.3,60,0.00, ,,-99.99,VWS V12.07,2013-01-05 15:53:00,
2013-01-05 10:58:00,44.2,31.2,30.38,NNW,344,7.8,11.9,60,0.00, ,,-99.99,VWS V12.07,2013-01-05 15:58:00,
2013-01-05 11:03:00,44.3,31.1,30.38,North,358,8.5,11.9,59,0.00, ,,-99.99,VWS V12.07,2013-01-05 16:03:00,
2013-01-05 11:08:00,44.6,31.8,30.38,NNE,22,9.6,11.9,60,0.00, ,,-99.99,VWS V12.07,2013-01-05 16:08:00,
2013-01-05 11:13:00,44.8,31.4,30.37,NNE,15,8.3,12.9,59,0.00, ,,-99.99,VWS V12.07,2013-01-05 16:13:00,
2013-01-05 11:18:00,45.0,31.6,30.37,North,350,10.7,13.6,59,0.00, ,,-99.99,VWS V12.07,2013-01-05 16:18:00,
2013-01-05 11:23:00,45.3,31.8,30.37,NNW,341,8.8,13.6,59,0.00, ,,-99.99,VWS V12.07,2013-01-05 16:23:00,
2013-01-05 11:28:00,45.6,31.1,30.37,NNE,24,8.4,13.6,57,0.00, ,,-99.99,VWS V12.07,2013-01-05 16:28:00,
2013-01-05 11:33:00,45.3,31.0,30.37,North,8,7.5,13.6,57,0.00, ,,-99.99,VWS V12.07,2013-01-05 16:33:00,
2013-01-05 11:38:00,46.6,31.9,30.36,North,353,8.0,10.3,56,0.00, ,,-99.99,VWS V12.07,2013-01-05 16:38:00,
2013-01-05 11:43:00,46.5,31.7,30.36,NNE,18,9.1,11.9,56,0.00, ,,-99.99,VWS V12.07,2013-01-05 16:43:00,
2013-01-05 11:48:00,46.4,30.8,30.36,NNE,14,10.4,12.8,54,0.00, ,,-99.99,VWS V12.07,2013-01-05 16:48:00,
2013-01-05 11:53:00,46.9,30.3,30.36,North,357,9.9,12.8,52,0.00, ,,-99.99,VWS V12.07,2013-01-05 16:53:00,
2013-01-05 11:58:00,47.0,29.1,30.36,NNE,24,8.8,12.1,50,0.00, ,,-99.99,VWS V12.07,2013-01-05 16:58:00,
2013-01-05 12:03:00,47.2,29.9,30.36,NNE,24,6.0,12.9,51,0.00, ,,-99.99,VWS V12.07,2013-01-05 17:03:00,
2013-01-05 12:08:00,47.2,30.5,30.35,North,4,7.3,12.9,52,0.00, ,,-99.99,VWS V12.07,2013-01-05 17:08:00,
2013-01-05 12:13:00,48.0,31.6,30.36,NNE,24,0.0,12.9,53,0.00, ,,-99.99,VWS V12.07,2013-01-05 17:13:00,
2013-01-05 12:18:00,48.1,31.0,30.35,NNE,17,8.0,9.6,51,0.00, ,,-99.99,VWS V12.07,2013-01-05 17:18:00,
2013-01-05 12:24:00,48.2,31.0,30.36,ESE,108,4.8,10.0,51,0.00, ,,-99.99,VWS V12.07,2013-01-05 17:24:00,
2013-01-05 12:29:00,47.7,30.7,30.35,NE,52,4.6,10.3,52,0.00, ,,-99.99,VWS V12.07,2013-01-05 17:29:00,
2013-01-05 12:34:00,47.3,30.4,30.35,NE,55,5.3,10.3,52,0.00, ,,-99.99,VWS V12.07,2013-01-05 17:34:00,
2013-01-05 12:39:00,47.5,30.6,30.35,ENE,73,5.2,8.2,52,0.00, ,,-99.99,VWS V12.07,2013-01-05 17:39:00,
2013-01-05 12:44:00,47.6,31.0,30.35,East,98,9.3,9.9,52,0.00, ,,-99.99,VWS V12.07,2013-01-05 17:44:00,
2013-01-05 12:49:00,47.5,31.0,30.35,ENE,74,7.0,9.9,52,0.00, ,,-99.99,VWS V12.07,2013-01-05 17:49:00,
2013-01-05 12:54:00,47.7,31.6,30.34,East,94,5.5,9.9,53,0.00, ,,-99.99,VWS V12.07,2013-01-05 17:54:00,
2013-01-05 12:59:00,47.2,30.2,30.34,East,84,5.8,8.4,52,0.00, ,,-99.99,VWS V12.07,2013-01-05 17:59:00,
2013-01-05 13:04:00,48.2,31.4,30.34,ENE,70,4.5,8.4,52,0.00, ,,-99.99,VWS V12.07,2013-01-05 18:04:00,
2013-01-05 13:09:00,48.6,31.7,30.34,ESE,121,3.4,8.4,52,0.00, ,,-99.99,VWS V12.07,2013-01-05 18:09:00,
2013-01-05 13:14:00,48.5,30.6,30.34,ENE,76,5.8,8.4,50,0.00, ,,-99.99,VWS V12.07,2013-01-05 18:14:00,
2013-01-05 13:19:00,48.4,30.6,30.34,ENE,71,6.3,9.0,50,0.00, ,,-99.99,VWS V12.07,2013-01-05 18:19:00,
2013-01-05 13:24:00,49.3,31.1,30.34,East,94,5.7,9.0,49,0.00, ,,-99.99,VWS V12.07,2013-01-05 18:24:00,
2013-01-05 13:29:00,49.4,31.0,30.34,East,85,0.0,9.0,49,0.00, ,,-99.99,VWS V12.07,2013-01-05 18:29:00,
2013-01-05 13:34:00,49.5,31.6,30.34,East,80,6.6,9.0,50,0.00, ,,-99.99,VWS V12.07,2013-01-05 18:34:00,
2013-01-05 13:39:00,49.5,31.9,30.34,East,91,0.0,0.0,50,0.00, ,,-99.99,VWS V12.07,2013-01-05 18:39:00,
2013-01-05 13:44:00,49.0,31.8,30.33,East,85,4.5,7.4,51,0.00, ,,-99.99,VWS V12.07,2013-01-05 18:44:00,
2013-01-05 13:49:00,48.9,31.5,30.34,NE,49,3.4,8.9,51,0.00, ,,-99.99,VWS V12.07,2013-01-05 18:49:00,
2013-01-05 13:54:00,48.6,31.1,30.34,NE,40,0.0,8.9,50,0.00, ,,-99.99,VWS V12.07,2013-01-05 18:54:00,
2013-01-05 13:59:00,48.8,31.1,30.33,NE,40,0.0,0.0,50,0.00, ,,-99.99,VWS V12.07,2013-01-05 18:59:00,
2013-01-05 14:04:00,49.1,31.3,30.33,NE,45,3.4,6.6,50,0.00, ,,-99.99,VWS V12.07,2013-01-05 19:04:00,
2013-01-05 14:10:00,49.4,31.3,30.33,NE,46,3.0,6.6,50,0.00, ,,-99.99,VWS V12.07,2013-01-05 19:10:00,
2013-01-05 14:15:00,49.6,31.8,30.33,ENE,70,0.0,6.6,50,0.00, ,,-99.99,VWS V12.07,2013-01-05 19:15:00,
2013-01-05 14:20:00,49.3,31.0,30.33,ENE,70,0.0,0.0,49,0.00, ,,-99.99,VWS V12.07,2013-01-05 19:20:00,
2013-01-05 14:25:00,49.7,30.7,30.33,ENE,70,0.0,0.0,48,0.00, ,,-99.99,VWS V12.07,2013-01-05 19:25:00,
2013-01-05 14:30:00,49.3,30.2,30.33,North,7,5.0,5.5,48,0.00, ,,-99.99,VWS V12.07,2013-01-05 19:30:00,
2013-01-05 14:35:00,49.6,30.8,30.34,NE,46,5.3,7.0,48,0.00, ,,-99.99,VWS V12.07,2013-01-05 19:35:00,
2013-01-05 14:40:00,49.0,30.9,30.33,NE,56,4.8,7.2,49,0.00, ,,-99.99,VWS V12.07,2013-01-05 19:40:00,
2013-01-05 14:45:00,49.2,30.9,30.33,ENE,62,4.8,7.8,49,0.00, ,,-99.99,VWS V12.07,2013-01-05 19:45:00,
2013-01-05 14:50:00,49.5,36.8,30.33,SSE,147,7.9,9.5,61,0.00, ,,-99.99,VWS V12.07,2013-01-05 19:50:00,
2013-01-05 14:55:00,48.6,35.9,30.33,South,182,8.1,10.1,61,0.00, ,,-99.99,VWS V12.07,2013-01-05 19:55:00,
2013-01-05 15:00:00,48.7,37.1,30.33,SSE,150,10.1,10.7,64,0.00, ,,-99.99,VWS V12.07,2013-01-05 20:00:00,
2013-01-05 15:05:00,48.5,37.3,30.33,SSE,147,8.9,10.7,65,0.00, ,,-99.99,VWS V12.07,2013-01-05 20:05:00,
2013-01-05 15:10:00,48.6,36.8,30.33,SSE,161,7.8,11.8,63,0.00, ,,-99.99,VWS V12.07,2013-01-05 20:10:00,
2013-01-05 15:15:00,48.2,36.6,30.32,SSE,164,8.1,12.2,64,0.00, ,,-99.99,VWS V12.07,2013-01-05 20:15:00,
2013-01-05 15:20:00,48.6,36.8,30.33,SE,132,9.9,10.2,63,0.00, ,,-99.99,VWS V12.07,2013-01-05 20:20:00,
2013-01-05 15:25:00,48.2,35.3,30.33,SSE,159,8.9,11.4,61,0.00, ,,-99.99,VWS V12.07,2013-01-05 20:25:00,
2013-01-05 15:30:00,48.0,36.4,30.33,SSE,156,6.2,11.4,64,0.00, ,,-99.99,VWS V12.07,2013-01-05 20:30:00,
2013-01-05 15:35:00,48.5,36.2,30.32,SE,133,9.4,12.4,62,0.00, ,,-99.99,VWS V12.07,2013-01-05 20:35:00,
2013-01-05 15:40:00,48.0,35.5,30.32,SE,132,7.6,10.8,62,0.00, ,,-99.99,VWS V12.07,2013-01-05 20:40:00,
2013-01-05 15:45:00,47.7,34.8,30.33,East,100,9.5,11.2,61,0.00, ,,-99.99,VWS V12.07,2013-01-05 20:45:00,
2013-01-05 15:50:00,48.0,35.0,30.33,SSE,149,8.0,11.2,61,0.00, ,,-99.99,VWS V12.07,2013-01-05 20:50:00,
2013-01-05 15:55:00,47.9,35.4,30.32,ESE,116,8.6,11.4,62,0.00, ,,-99.99,VWS V12.07,2013-01-05 20:55:00,
2013-01-05 16:00:00,48.0,35.2,30.32,SE,143,7.7,9.9,61,0.00, ,,-99.99,VWS V12.07,2013-01-05 21:00:00,
2013-01-05 16:05:00,48.2,36.0,30.32,ESE,102,7.2,10.5,62,0.00, ,,-99.99,VWS V12.07,2013-01-05 21:05:00,
2013-01-05 16:10:00,48.1,36.1,30.32,ESE,115,7.0,10.5,63,0.00, ,,-99.99,VWS V12.07,2013-01-05 21:10:00,
2013-01-05 16:15:00,48.0,36.3,30.33,East,101,7.3,10.5,64,0.00, ,,-99.99,VWS V12.07,2013-01-05 21:15:00,
2013-01-05 16:20:00,47.5,35.4,30.32,ESE,111,9.1,9.4,63,0.00, ,,-99.99,VWS V12.07,2013-01-05 21:20:00,
2013-01-05 16:25:00,47.1,35.1,30.32,East,90,9.8,11.2,63,0.00, ,,-99.99,VWS V12.07,2013-01-05 21:25:00,
2013-01-05 16:30:00,47.2,35.5,30.32,ENE,73,7.1,11.2,64,0.00, ,,-99.99,VWS V12.07,2013-01-05 21:30:00,
2013-01-05 16:35:00,47.0,35.5,30.32,ESE,104,6.9,11.2,64,0.00, ,,-99.99,VWS V12.07,2013-01-05 21:35:00,
2013-01-05 16:40:00,47.0,35.7,30.32,East,100,5.9,7.6,65,0.00, ,,-99.99,VWS V12.07,2013-01-05 21:40:00,
2013-01-05 16:45:00,47.6,36.1,30.33,East,101,5.5,9.1,64,0.00, ,,-99.99,VWS V12.07,2013-01-05 21:45:00,
2013-01-05 16:50:00,46.7,34.9,30.32,ENE,74,6.0,9.1,63,0.00, ,,-99.99,VWS V12.07,2013-01-05 21:50:00,
2013-01-05 16:55:00,46.0,34.0,30.33,ENE,74,8.3,10.2,63,0.00, ,,-99.99,VWS V12.07,2013-01-05 21:55:00,
2013-01-05 17:00:00,46.5,34.6,30.33,ENE,66,6.1,8.6,63,0.00, ,,-99.99,VWS V12.07,2013-01-05 22:00:00,
2013-01-05 17:05:00,46.1,33.9,30.33,East,83,7.7,9.1,62,0.00, ,,-99.99,VWS V12.07,2013-01-05 22:05:00,
2013-01-05 17:10:00,45.9,34.0,30.33,ENE,66,7.0,10.6,63,0.00, ,,-99.99,VWS V12.07,2013-01-05 22:10:00,
2013-01-05 17:15:00,46.0,33.5,30.33,ENE,70,6.6,10.6,61,0.00, ,,-99.99,VWS V12.07,2013-01-05 22:15:00,
2013-01-05 17:20:00,45.0,31.7,30.33,East,81,7.8,10.0,59,0.00, ,,-99.99,VWS V12.07,2013-01-05 22:20:00,
2013-01-05 17:25:00,45.8,31.0,30.33,East,85,7.8,10.0,56,0.00, ,,-99.99,VWS V12.07,2013-01-05 22:25:00,
2013-01-05 17:30:00,46.2,31.9,30.34,ENE,62,0.0,10.0,57,0.00, ,,-99.99,VWS V12.07,2013-01-05 22:30:00,
2013-01-05 17:35:00,46.2,32.2,30.34,ENE,62,0.0,10.0,58,0.00, ,,-99.99,VWS V12.07,2013-01-05 22:35:00,
2013-01-05 17:40:00,46.2,32.0,30.34,NNE,32,0.0,3.3,57,0.00, ,,-99.99,VWS V12.07,2013-01-05 22:40:00,
2013-01-05 17:45:00,46.4,32.8,30.34,NNE,32,0.0,3.3,59,0.00, ,,-99.99,VWS V12.07,2013-01-05 22:45:00,
2013-01-05 17:50:00,45.9,33.1,30.35,NNE,32,0.0,3.3,61,0.00, ,,-99.99,VWS V12.07,2013-01-05 22:50:00,
2013-01-05 17:55:00,46.1,33.9,30.35,NNE,32,0.0,3.3,62,0.00, ,,-99.99,VWS V12.07,2013-01-05 22:55:00,
2013-01-05 18:00:00,46.0,33.6,30.35,NNE,32,0.0,0.0,62,0.00, ,,-99.99,VWS V12.07,2013-01-05 23:00:00,
2013-01-05 18:05:00,45.9,34.4,30.35,NNE,32,0.0,0.0,64,0.00, ,,-99.99,VWS V12.07,2013-01-05 23:05:00,
2013-01-05 18:10:00,45.7,35.0,30.36,NW,315,0.0,3.2,66,0.00, ,,-99.99,VWS V12.07,2013-01-05 23:10:00,
2013-01-05 18:15:00,45.0,34.8,30.35,NW,315,0.0,3.2,67,0.00, ,,-99.99,VWS V12.07,2013-01-05 23:15:00,
2013-01-05 18:20:00,44.6,35.3,30.35,NW,315,0.0,0.0,70,0.00, ,,-99.99,VWS V12.07,2013-01-05 23:20:00,
2013-01-05 18:25:00,44.6,37.0,30.35,NW,315,0.0,0.0,75,0.00, ,,-99.99,VWS V12.07,2013-01-05 23:25:00,
2013-01-05 18:30:00,44.4,37.5,30.35,NW,315,0.0,0.0,76,0.00, ,,-99.99,VWS V12.07,2013-01-05 23:30:00,
2013-01-05 18:35:00,44.0,36.5,30.35,NW,315,0.0,0.0,75,0.00, ,,-99.99,VWS V12.07,2013-01-05 23:35:00,
2013-01-05 18:40:00,43.5,36.0,30.35,NW,315,0.0,0.0,75,0.00, ,,-99.99,VWS V12.07,2013-01-05 23:40:00,
2013-01-05 18:45:00,43.8,37.3,30.35,NW,315,0.0,0.0,78,0.00, ,,-99.99,VWS V12.07,2013-01-05 23:45:00,
2013-01-05 18:50:00,43.8,38.2,30.34,NW,315,0.0,0.0,80,0.00, ,,-99.99,VWS V12.07,2013-01-05 23:50:00,
2013-01-05 18:55:00,44.0,39.2,30.35,NW,315,0.0,0.0,83,0.00, ,,-99.99,VWS V12.07,2013-01-05 23:55:00,
2013-01-05 19:00:00,43.8,39.5,30.34,NW,315,0.0,0.0,85,0.00, ,,-99.99,VWS V12.07,2013-01-06 00:00:00,
2013-01-05 19:05:00,43.6,39.9,30.35,NW,315,0.0,0.0,87,0.00, ,,-99.99,VWS V12.07,2013-01-06 00:05:00,
2013-01-05 19:10:00,43.3,40.0,30.35,NW,315,0.0,0.0,88,0.00, ,,-99.99,VWS V12.07,2013-01-06 00:10:00,
2013-01-05 19:15:00,43.1,39.7,30.35,NW,315,0.0,0.0,88,0.00, ,,-99.99,VWS V12.07,2013-01-06 00:15:00,
2013-01-05 19:20:00,43.2,39.9,30.34,NW,315,0.0,0.0,88,0.00, ,,-99.99,VWS V12.07,2013-01-06 00:20:00,
2013-01-05 19:25:00,42.7,39.8,30.35,NW,315,0.0,0.0,89,0.00, ,,-99.99,VWS V12.07,2013-01-06 00:25:00,
2013-01-05 19:30:00,42.0,38.4,30.35,NW,315,0.0,0.0,87,0.00, ,,-99.99,VWS V12.07,2013-01-06 00:30:00,
2013-01-05 19:35:00,42.3,37.8,30.35,NW,315,0.0,0.0,84,0.00, ,,-99.99,VWS V12.07,2013-01-06 00:35:00,
2013-01-05 19:40:00,42.4,36.6,30.35,NW,315,0.0,0.0,80,0.00, ,,-99.99,VWS V12.07,2013-01-06 00:40:00,
2013-01-05 19:46:00,42.6,36.4,30.35,NW,315,0.0,0.0,78,0.00, ,,-99.99,VWS V12.07,2013-01-06 00:46:00,
2013-01-05 19:51:00,43.1,35.2,30.35,NW,315,0.0,0.0,73,0.00, ,,-99.99,VWS V12.07,2013-01-06 00:51:00,
2013-01-05 19:56:00,43.2,35.3,30.35,NW,315,0.0,0.0,74,0.00, ,,-99.99,VWS V12.07,2013-01-06 00:56:00,
2013-01-05 20:01:00,43.1,35.7,30.35,NW,315,0.0,0.0,75,0.00, ,,-99.99,VWS V12.07,2013-01-06 01:01:00,
2013-01-05 20:06:00,42.5,35.9,30.34,NW,315,0.0,0.0,77,0.00, ,,-99.99,VWS V12.07,2013-01-06 01:06:00,
2013-01-05 20:11:00,42.3,36.7,30.33,NW,315,0.0,0.0,80,0.00, ,,-99.99,VWS V12.07,2013-01-06 01:11:00,
2013-01-05 20:16:00,42.4,36.9,30.33,NW,315,0.0,0.0,81,0.00, ,,-99.99,VWS V12.07,2013-01-06 01:16:00,
2013-01-05 20:21:00,42.7,38.2,30.33,NW,315,0.0,0.0,84,0.00, ,,-99.99,VWS V12.07,2013-01-06 01:21:00,
2013-01-05 20:26:00,42.5,38.6,30.33,NW,315,0.0,0.0,86,0.00, ,,-99.99,VWS V12.07,2013-01-06 01:26:00,
2013-01-05 20:31:00,42.1,38.7,30.34,NW,315,0.0,0.0,88,0.00, ,,-99.99,VWS V12.07,2013-01-06 01:31:00,
2013-01-05 20:36:00,42.1,39.0,30.33,NW,315,0.0,0.0,89,0.00, ,,-99.99,VWS V12.07,2013-01-06 01:36:00,
2013-01-05 20:41:00,42.2,39.3,30.33,NW,315,0.0,0.0,89,0.00, ,,-99.99,VWS V12.07,2013-01-06 01:41:00,
2013-01-05 20:46:00,42.2,38.8,30.33,NW,315,0.0,0.0,88,0.00, ,,-99.99,VWS V12.07,2013-01-06 01:46:00,
2013-01-05 20:51:00,41.8,38.4,30.33,NW,315,0.0,0.0,88,0.00, ,,-99.99,VWS V12.07,2013-01-06 01:51:00,
2013-01-05 20:56:00,42.1,38.3,30.33,NW,315,0.0,0.0,86,0.00, ,,-99.99,VWS V12.07,2013-01-06 01:56:00,
2013-01-05 21:01:00,41.7,37.4,30.33,NW,315,0.0,0.0,85,0.00, ,,-99.99,VWS V12.07,2013-01-06 02:01:00,
2013-01-05 21:06:00,41.4,38.4,30.33,NW,315,0.0,0.0,89,0.00, ,,-99.99,VWS V12.07,2013-01-06 02:06:00,
2013-01-05 21:11:00,41.6,39.5,30.33,NW,315,0.0,0.0,92,0.00, ,,-99.99,VWS V12.07,2013-01-06 02:11:00,
2013-01-05 21:16:00,41.9,40.1,30.33,NW,315,0.0,0.0,93,0.00, ,,-99.99,VWS V12.07,2013-01-06 02:16:00,
2013-01-05 21:21:00,41.7,40.1,30.33,NW,315,0.0,0.0,94,0.00, ,,-99.99,VWS V12.07,2013-01-06 02:21:00,
2013-01-05 21:27:00,41.6,40.3,30.32,NW,315,0.0,0.0,95,0.00, ,,-99.99,VWS V12.07,2013-01-06 02:27:00,
2013-01-05 21:32:00,42.1,40.3,30.32,NW,315,0.0,0.0,93,0.00, ,,-99.99,VWS V12.07,2013-01-06 02:32:00,
2013-01-05 21:37:00,42.1,40.1,30.33,NW,315,0.0,0.0,92,0.00, ,,-99.99,VWS V12.07,2013-01-06 02:37:00,
2013-01-05 21:42:00,42.2,40.1,30.32,NW,315,0.0,0.0,92,0.00, ,,-99.99,VWS V12.07,2013-01-06 02:42:00,
2013-01-05 21:47:00,42.2,40.0,30.32,NW,315,0.0,0.0,92,0.00, ,,-99.99,VWS V12.07,2013-01-06 02:47:00,
2013-01-05 21:52:00,42.1,40.1,30.32,NW,315,0.0,0.0,93,0.00, ,,-99.99,VWS V12.07,2013-01-06 02:52:00,
2013-01-05 21:57:00,42.3,40.4,30.32,NW,315,0.0,0.0,93,0.00, ,,-99.99,VWS V12.07,2013-01-06 02:57:00,
2013-01-05 22:02:00,41.8,39.8,30.32,NW,315,0.0,0.0,93,0.00, ,,-99.99,VWS V12.07,2013-01-06 03:02:00,
2013-01-05 22:07:00,41.8,39.5,30.31,NW,315,0.0,0.0,91,0.00, ,,-99.99,VWS V12.07,2013-01-06 03:07:00,
2013-01-05 22:12:00,42.3,39.5,30.32,NW,315,0.0,0.0,90,0.00, ,,-99.99,VWS V12.07,2013-01-06 03:12:00,
2013-01-05 22:17:00,41.9,38.4,30.32,NW,315,0.0,0.0,87,0.00, ,,-99.99,VWS V12.07,2013-01-06 03:17:00,
2013-01-05 22:22:00,42.5,38.4,30.31,NW,315,0.0,0.0,85,0.00, ,,-99.99,VWS V12.07,2013-01-06 03:22:00,
2013-01-05 22:27:00,42.7,38.0,30.31,NW,315,0.0,0.0,83,0.00, ,,-99.99,VWS V12.07,2013-01-06 03:27:00,
2013-01-05 22:32:00,43.0,38.5,30.31,NW,315,0.0,0.0,84,0.00, ,,-99.99,VWS V12.07,2013-01-06 03:32:00,
2013-01-05 22:37:00,43.7,39.0,30.31,NW,315,0.0,0.0,83,0.00, ,,-99.99,VWS V12.07,2013-01-06 03:37:00,
2013-01-05 22:42:00,43.1,38.5,30.31,NW,315,0.0,0.0,84,0.00, ,,-99.99,VWS V12.07,2013-01-06 03:42:00,
2013-01-05 22:47:00,43.0,38.5,30.31,NW,315,0.0,0.0,84,0.00, ,,-99.99,VWS V12.07,2013-01-06 03:47:00,
2013-01-05 22:52:00,42.9,38.5,30.30,NW,315,0.0,0.0,84,0.00, ,,-99.99,VWS V12.07,2013-01-06 03:52:00,
2013-01-05 22:57:00,43.4,38.9,30.30,NW,315,0.0,0.0,84,0.00, ,,-99.99,VWS V12.07,2013-01-06 03:57:00,
2013-01-05 23:02:00,43.2,38.5,30.29,NW,315,0.0,0.0,83,0.00, ,,-99.99,VWS V12.07,2013-01-06 04:02:00,
2013-01-05 23:07:00,43.1,37.9,30.29,NW,315,0.0,0.0,82,0.00, ,,-99.99,VWS V12.07,2013-01-06 04:07:00,
2013-01-05 23:12:00,44.1,38.8,30.29,NW,315,0.0,0.0,81,0.00, ,,-99.99,VWS V12.07,2013-01-06 04:12:00,
2013-01-05 23:17:00,44.2,37.9,30.29,NW,315,0.0,0.0,78,0.00, ,,-99.99,VWS V12.07,2013-01-06 04:17:00,
2013-01-05 23:22:00,44.4,37.0,30.29,NW,315,0.0,0.0,75,0.00, ,,-99.99,VWS V12.07,2013-01-06 04:22:00,
2013-01-05 23:27:00,44.3,37.8,30.30,NW,315,0.0,0.0,78,0.00, ,,-99.99,VWS V12.07,2013-01-06 04:27:00,
2013-01-05 23:32:00,44.4,38.7,30.30,NW,315,0.0,0.0,80,0.00, ,,-99.99,VWS V12.07,2013-01-06 04:32:00,
2013-01-05 23:37:00,44.9,38.9,30.30,NW,315,0.0,0.0,79,0.00, ,,-99.99,VWS V12.07,2013-01-06 04:37:00,
2013-01-05 23:42:00,44.8,38.8,30.29,NW,315,0.0,0.0,79,0.00, ,,-99.99,VWS V12.07,2013-01-06 04:42:00,
2013-01-05 23:47:00,45.2,39.3,30.30,NW,315,0.0,0.0,80,0.00, ,,-99.99,VWS V12.07,2013-01-06 04:47:00,
2013-01-05 23:52:00,44.9,38.9,30.30,NW,315,0.0,0.0,79,0.00, ,,-99.99,VWS V12.07,2013-01-06 04:52:00,
2013-01-05 23:57:00,44.9,39.0,30.29,NW,315,0.0,0.0,80,0.00, ,,-99.99,VWS V12.07,2013-01-06 04:57:00,